sensor_id;sensor_type;location;lat;lon;timestamp;pressure;altitude;pressure_sealevel;temperature;humidity
9750;BME280;4914;43.218;27.908;2022-07-22T00:00:48;100713.13;;;21.71;100.00
9750;BME280;4914;43.218;27.908;2022-07-22T00:03:15;100710.59;;;21.85;100.00
9750;BME280;4914;43.218;27.908;2022-07-22T00:05:42;100718.25;;;21.81;100.00
9750;BME280;4914;43.218;27.908;2022-07-22T00:08:10;100719.19;;;21.73;100.00
9750;BME280;4914;43.218;27.908;2022-07-22T00:10:37;100717.44;;;21.51;100.00
9750;BME280;4914;43.218;27.908;2022-07-22T00:13:04;100723.22;;;21.48;100.00
9750;BME280;4914;43.218;27.908;2022-07-22T00:15:31;100719.94;;;21.53;100.00
9750;BME280;4914;43.218;27.908;2022-07-22T00:17:58;100719.84;;;21.46;100.00
9750;BME280;4914;43.218;27.908;2022-07-22T00:20:25;100728.34;;;21.43;100.00
9750;BME280;4914;43.218;27.908;2022-07-22T00:22:52;100729.69;;;21.39;100.00
9750;BME280;4914;43.218;27.908;2022-07-22T00:25:20;100731.88;;;21.29;100.00
9750;BME280;4914;43.218;27.908;2022-07-22T00:27:47;100725.97;;;21.25;100.00
9750;BME280;4914;43.218;27.908;2022-07-22T00:30:14;100730.25;;;21.20;100.00
9750;BME280;4914;43.218;27.908;2022-07-22T00:32:41;100725.88;;;21.19;100.00
9750;BME280;4914;43.218;27.908;2022-07-22T00:35:09;100728.94;;;21.16;100.00
9750;BME280;4914;43.218;27.908;2022-07-22T00:37:36;100717.13;;;21.17;100.00
9750;BME280;4914;43.218;27.908;2022-07-22T00:40:04;100722.53;;;21.17;100.00
9750;BME280;4914;43.218;27.908;2022-07-22T00:42:32;100725.59;;;21.14;100.00
9750;BME280;4914;43.218;27.908;2022-07-22T00:44:59;100726.75;;;21.11;100.00
9750;BME280;4914;43.218;27.908;2022-07-22T00:47:26;100722.91;;;21.14;100.00
9750;BME280;4914;43.218;27.908;2022-07-22T00:49:53;100725.41;;;21.15;100.00
9750;BME280;4914;43.218;27.908;2022-07-22T00:52:20;100726.44;;;21.14;100.00
9750;BME280;4914;43.218;27.908;2022-07-22T00:54:49;100725.22;;;21.17;100.00
9750;BME280;4914;43.218;27.908;2022-07-22T00:57:16;100721.69;;;21.16;100.00
9750;BME280;4914;43.218;27.908;2022-07-22T00:59:44;100725.88;;;21.19;100.00
9750;BME280;4914;43.218;27.908;2022-07-22T01:02:11;100722.97;;;21.20;100.00
9750;BME280;4914;43.218;27.908;2022-07-22T01:04:39;100723.75;;;21.14;100.00
9750;BME280;4914;43.218;27.908;2022-07-22T01:07:06;100717.13;;;21.17;100.00
9750;BME280;4914;43.218;27.908;2022-07-22T01:09:33;100715.94;;;21.19;100.00
9750;BME280;4914;43.218;27.908;2022-07-22T01:12:00;100713.88;;;21.21;100.00
9750;BME280;4914;43.218;27.908;2022-07-22T01:14:27;100709.75;;;21.25;100.00
9750;BME280;4914;43.218;27.908;2022-07-22T01:16:55;100705.22;;;21.26;100.00
9750;BME280;4914;43.218;27.908;2022-07-22T01:19:22;100709.59;;;21.27;100.00
9750;BME280;4914;43.218;27.908;2022-07-22T01:21:50;100707.44;;;21.37;100.00
9750;BME280;4914;43.218;27.908;2022-07-22T01:24:17;100705.31;;;21.47;100.00
9750;BME280;4914;43.218;27.908;2022-07-22T01:26:44;100697.94;;;21.41;100.00
9750;BME280;4914;43.218;27.908;2022-07-22T01:29:11;100705.78;;;21.36;100.00
9750;BME280;4914;43.218;27.908;2022-07-22T01:31:38;100703.06;;;21.36;100.00
9750;BME280;4914;43.218;27.908;2022-07-22T01:34:05;100702.69;;;21.39;100.00
9750;BME280;4914;43.218;27.908;2022-07-22T01:36:32;100710.63;;;21.55;100.00
9750;BME280;4914;43.218;27.908;2022-07-22T01:39:00;100698.91;;;21.48;100.00
9750;BME280;4914;43.218;27.908;2022-07-22T01:41:27;100699.53;;;21.36;100.00
9750;BME280;4914;43.218;27.908;2022-07-22T01:43:54;100700.19;;;21.23;100.00
9750;BME280;4914;43.218;27.908;2022-07-22T01:46:21;100699.56;;;20.98;100.00
9750;BME280;4914;43.218;27.908;2022-07-22T01:48:49;100699.31;;;20.70;100.00
9750;BME280;4914;43.218;27.908;2022-07-22T01:51:16;100703.50;;;20.50;100.00
9750;BME280;4914;43.218;27.908;2022-07-22T01:53:43;100700.59;;;20.29;100.00
9750;BME280;4914;43.218;27.908;2022-07-22T01:56:11;100691.38;;;20.23;100.00
9750;BME280;4914;43.218;27.908;2022-07-22T01:58:38;100700.94;;;20.26;100.00
9750;BME280;4914;43.218;27.908;2022-07-22T02:01:05;100699.25;;;20.25;100.00
9750;BME280;4914;43.218;27.908;2022-07-22T02:03:32;100705.03;;;20.22;100.00
9750;BME280;4914;43.218;27.908;2022-07-22T02:05:59;100697.06;;;20.28;100.00
9750;BME280;4914;43.218;27.908;2022-07-22T02:08:26;100699.63;;;20.22;100.00
9750;BME280;4914;43.218;27.908;2022-07-22T02:10:53;100693.19;;;20.31;100.00
9750;BME280;4914;43.218;27.908;2022-07-22T02:13:21;100696.56;;;20.33;100.00
9750;BME280;4914;43.218;27.908;2022-07-22T02:15:48;100700.13;;;20.48;100.00
9750;BME280;4914;43.218;27.908;2022-07-22T02:18:16;100705.53;;;20.48;100.00
9750;BME280;4914;43.218;27.908;2022-07-22T02:20:44;100702.91;;;20.40;100.00
9750;BME280;4914;43.218;27.908;2022-07-22T02:23:11;100700.03;;;20.41;100.00
9750;BME280;4914;43.218;27.908;2022-07-22T02:25:39;100702.44;;;20.36;100.00
9750;BME280;4914;43.218;27.908;2022-07-22T02:28:06;100707.66;;;20.30;100.00
9750;BME280;4914;43.218;27.908;2022-07-22T02:30:34;100704.84;;;20.31;100.00
9750;BME280;4914;43.218;27.908;2022-07-22T02:33:01;100709.84;;;20.34;100.00
9750;BME280;4914;43.218;27.908;2022-07-22T02:35:28;100705.50;;;20.33;100.00
9750;BME280;4914;43.218;27.908;2022-07-22T02:37:55;100702.44;;;20.36;100.00
9750;BME280;4914;43.218;27.908;2022-07-22T02:40:22;100702.19;;;20.46;100.00
9750;BME280;4914;43.218;27.908;2022-07-22T02:42:49;100703.50;;;20.50;100.00
9750;BME280;4914;43.218;27.908;2022-07-22T02:45:16;100705.50;;;20.56;100.00
9750;BME280;4914;43.218;27.908;2022-07-22T02:47:48;100702.91;;;20.63;100.00
9750;BME280;4914;43.218;27.908;2022-07-22T02:50:16;100695.94;;;20.68;100.00
9750;BME280;4914;43.218;27.908;2022-07-22T02:52:43;100700.25;;;20.77;100.00
9750;BME280;4914;43.218;27.908;2022-07-22T02:55:10;100698.81;;;20.89;100.00
9750;BME280;4914;43.218;27.908;2022-07-22T02:57:37;100701.78;;;20.95;100.00
9750;BME280;4914;43.218;27.908;2022-07-22T03:00:05;100699.72;;;20.97;100.00
9750;BME280;4914;43.218;27.908;2022-07-22T03:02:32;100699.00;;;21.03;100.00
9750;BME280;4914;43.218;27.908;2022-07-22T03:05:00;100707.78;;;21.05;100.00
9750;BME280;4914;43.218;27.908;2022-07-22T03:07:27;100706.00;;;21.12;100.00
9750;BME280;4914;43.218;27.908;2022-07-22T03:09:54;100718.47;;;21.13;100.00
9750;BME280;4914;43.218;27.908;2022-07-22T03:12:21;100713.78;;;21.15;100.00
9750;BME280;4914;43.218;27.908;2022-07-22T03:14:48;100706.69;;;21.14;100.00
9750;BME280;4914;43.218;27.908;2022-07-22T03:17:14;100708.69;;;21.12;100.00
9750;BME280;4914;43.218;27.908;2022-07-22T03:19:41;100705.84;;;21.13;100.00
9750;BME280;4914;43.218;27.908;2022-07-22T03:22:09;100701.03;;;21.01;100.00
9750;BME280;4914;43.218;27.908;2022-07-22T03:24:36;100701.59;;;21.11;100.00
9750;BME280;4914;43.218;27.908;2022-07-22T03:27:03;100710.75;;;21.10;100.00
9750;BME280;4914;43.218;27.908;2022-07-22T03:29:30;100705.97;;;20.97;100.00
9750;BME280;4914;43.218;27.908;2022-07-22T03:31:57;100705.59;;;20.85;100.00
9750;BME280;4914;43.218;27.908;2022-07-22T03:34:24;100698.38;;;20.78;100.00
9750;BME280;4914;43.218;27.908;2022-07-22T03:36:51;100710.63;;;20.88;100.00
9750;BME280;4914;43.218;27.908;2022-07-22T03:39:19;100713.47;;;20.87;100.00
9750;BME280;4914;43.218;27.908;2022-07-22T03:41:46;100715.72;;;20.83;100.00
9750;BME280;4914;43.218;27.908;2022-07-22T03:44:13;100705.88;;;20.91;100.00
9750;BME280;4914;43.218;27.908;2022-07-22T03:46:39;100707.91;;;20.88;100.00
9750;BME280;4914;43.218;27.908;2022-07-22T03:49:06;100712.00;;;20.84;100.00
9750;BME280;4914;43.218;27.908;2022-07-22T03:51:33;100712.56;;;20.80;100.00
9750;BME280;4914;43.218;27.908;2022-07-22T03:54:00;100711.41;;;20.74;100.00
9750;BME280;4914;43.218;27.908;2022-07-22T03:56:28;100712.81;;;20.70;100.00
9750;BME280;4914;43.218;27.908;2022-07-22T03:58:55;100706.59;;;20.84;100.00
9750;BME280;4914;43.218;27.908;2022-07-22T04:01:22;100702.69;;;20.87;100.00
9750;BME280;4914;43.218;27.908;2022-07-22T04:03:49;100712.25;;;21.12;100.00
9750;BME280;4914;43.218;27.908;2022-07-22T04:06:16;100712.09;;;21.14;100.00
9750;BME280;4914;43.218;27.908;2022-07-22T04:08:43;100704.53;;;21.09;100.00
9750;BME280;4914;43.218;27.908;2022-07-22T04:11:10;100709.41;;;21.06;100.00
9750;BME280;4914;43.218;27.908;2022-07-22T04:13:38;100706.94;;;21.04;100.00
9750;BME280;4914;43.218;27.908;2022-07-22T04:16:05;100712.19;;;21.20;100.00
9750;BME280;4914;43.218;27.908;2022-07-22T04:18:32;100711.72;;;21.17;100.00
9750;BME280;4914;43.218;27.908;2022-07-22T04:20:59;100709.69;;;21.19;100.00
9750;BME280;4914;43.218;27.908;2022-07-22T04:23:26;100707.28;;;21.24;100.00
9750;BME280;4914;43.218;27.908;2022-07-22T04:25:53;100706.16;;;21.33;100.00
9750;BME280;4914;43.218;27.908;2022-07-22T04:28:21;100707.00;;;21.48;100.00
9750;BME280;4914;43.218;27.908;2022-07-22T04:30:49;100702.34;;;21.57;100.00
9750;BME280;4914;43.218;27.908;2022-07-22T04:33:16;100699.63;;;21.71;100.00
9750;BME280;4914;43.218;27.908;2022-07-22T04:35:43;100703.78;;;21.74;100.00
9750;BME280;4914;43.218;27.908;2022-07-22T04:38:09;100706.44;;;21.67;100.00
9750;BME280;4914;43.218;27.908;2022-07-22T04:40:36;100704.63;;;21.74;100.00
9750;BME280;4914;43.218;27.908;2022-07-22T04:43:03;100705.63;;;21.88;100.00
9750;BME280;4914;43.218;27.908;2022-07-22T04:45:31;100710.03;;;22.04;100.00
9750;BME280;4914;43.218;27.908;2022-07-22T04:47:59;100718.38;;;22.24;100.00
9750;BME280;4914;43.218;27.908;2022-07-22T04:50:26;100716.72;;;22.44;100.00
9750;BME280;4914;43.218;27.908;2022-07-22T04:52:53;100719.22;;;22.45;100.00
9750;BME280;4914;43.218;27.908;2022-07-22T04:55:19;100726.75;;;22.50;100.00
9750;BME280;4914;43.218;27.908;2022-07-22T04:57:46;100713.44;;;22.48;100.00
9750;BME280;4914;43.218;27.908;2022-07-22T05:00:14;100719.22;;;22.45;100.00
9750;BME280;4914;43.218;27.908;2022-07-22T05:02:42;100713.81;;;22.45;100.00
9750;BME280;4914;43.218;27.908;2022-07-22T05:05:10;100720.28;;;22.44;100.00
9750;BME280;4914;43.218;27.908;2022-07-22T05:07:37;100720.50;;;22.49;100.00
9750;BME280;4914;43.218;27.908;2022-07-22T05:10:05;100720.13;;;22.52;100.00
9750;BME280;4914;43.218;27.908;2022-07-22T05:12:32;100727.81;;;22.49;100.00
9750;BME280;4914;43.218;27.908;2022-07-22T05:14:59;100722.19;;;22.50;100.00
9750;BME280;4914;43.218;27.908;2022-07-22T05:17:26;100726.91;;;22.63;100.00
9750;BME280;4914;43.218;27.908;2022-07-22T05:19:53;100733.31;;;22.77;100.00
9750;BME280;4914;43.218;27.908;2022-07-22T05:22:21;100731.44;;;22.77;100.00
9750;BME280;4914;43.218;27.908;2022-07-22T05:24:48;100733.16;;;22.85;100.00
9750;BME280;4914;43.218;27.908;2022-07-22T05:27:15;100725.53;;;22.95;100.00
9750;BME280;4914;43.218;27.908;2022-07-22T05:29:42;100723.97;;;23.07;100.00
9750;BME280;4914;43.218;27.908;2022-07-22T05:32:09;100729.88;;;23.17;100.00
9750;BME280;4914;43.218;27.908;2022-07-22T05:34:35;100730.44;;;23.40;100.00
9750;BME280;4914;43.218;27.908;2022-07-22T05:37:02;100724.94;;;23.55;100.00
9750;BME280;4914;43.218;27.908;2022-07-22T05:39:31;100726.50;;;23.71;100.00
9750;BME280;4914;43.218;27.908;2022-07-22T05:41:58;100718.22;;;23.85;100.00
9750;BME280;4914;43.218;27.908;2022-07-22T05:44:25;100714.56;;;24.06;100.00
9750;BME280;4914;43.218;27.908;2022-07-22T05:46:52;100718.38;;;24.18;100.00
9750;BME280;4914;43.218;27.908;2022-07-22T05:49:18;100723.44;;;24.35;100.00
9750;BME280;4914;43.218;27.908;2022-07-22T05:51:47;100723.03;;;24.38;100.00
9750;BME280;4914;43.218;27.908;2022-07-22T05:54:14;100721.84;;;24.60;100.00
9750;BME280;4914;43.218;27.908;2022-07-22T05:56:42;100721.63;;;24.68;100.00
9750;BME280;4914;43.218;27.908;2022-07-22T05:59:09;100724.75;;;24.78;100.00
9750;BME280;4914;43.218;27.908;2022-07-22T06:01:36;100716.03;;;25.02;100.00
9750;BME280;4914;43.218;27.908;2022-07-22T06:04:03;100717.28;;;25.06;100.00
9750;BME280;4914;43.218;27.908;2022-07-22T06:06:30;100717.47;;;25.25;100.00
9750;BME280;4914;43.218;27.908;2022-07-22T06:08:57;100724.78;;;25.31;100.00
9750;BME280;4914;43.218;27.908;2022-07-22T06:11:23;100718.50;;;25.37;100.00
9750;BME280;4914;43.218;27.908;2022-07-22T06:13:52;100724.09;;;25.48;100.00
9750;BME280;4914;43.218;27.908;2022-07-22T06:16:19;100724.72;;;25.57;100.00
9750;BME280;4914;43.218;27.908;2022-07-22T06:18:45;100729.31;;;25.63;100.00
9750;BME280;4914;43.218;27.908;2022-07-22T06:21:12;100730.72;;;25.85;97.46
9750;BME280;4914;43.218;27.908;2022-07-22T06:23:39;100734.91;;;25.94;94.22
9750;BME280;4914;43.218;27.908;2022-07-22T06:26:06;100725.88;;;25.94;94.11
9750;BME280;4914;43.218;27.908;2022-07-22T06:28:33;100728.56;;;26.00;90.72
9750;BME280;4914;43.218;27.908;2022-07-22T06:31:01;100732.50;;;26.11;84.71
9750;BME280;4914;43.218;27.908;2022-07-22T06:33:29;100721.81;;;26.23;86.62
9750;BME280;4914;43.218;27.908;2022-07-22T06:35:58;100723.41;;;26.37;88.37
9750;BME280;4914;43.218;27.908;2022-07-22T06:38:25;100716.34;;;26.54;80.31
9750;BME280;4914;43.218;27.908;2022-07-22T06:40:52;100721.53;;;26.62;76.71
9750;BME280;4914;43.218;27.908;2022-07-22T06:43:19;100710.78;;;26.74;80.18
9750;BME280;4914;43.218;27.908;2022-07-22T06:45:45;100721.84;;;26.79;65.72
9750;BME280;4914;43.218;27.908;2022-07-22T06:48:15;100717.78;;;26.95;74.54
9750;BME280;4914;43.218;27.908;2022-07-22T06:50:42;100725.00;;;27.07;76.24
9750;BME280;4914;43.218;27.908;2022-07-22T06:53:09;100718.28;;;27.10;59.51
9750;BME280;4914;43.218;27.908;2022-07-22T06:55:35;100712.56;;;27.11;61.74
9750;BME280;4914;43.218;27.908;2022-07-22T06:58:02;100716.41;;;27.28;59.69
9750;BME280;4914;43.218;27.908;2022-07-22T07:00:29;100722.09;;;27.45;57.51
9750;BME280;4914;43.218;27.908;2022-07-22T07:02:57;100717.97;;;27.61;51.67
9750;BME280;4914;43.218;27.908;2022-07-22T07:05:26;100713.97;;;27.82;50.58
9750;BME280;4914;43.218;27.908;2022-07-22T07:07:53;100712.41;;;28.04;51.52
9750;BME280;4914;43.218;27.908;2022-07-22T07:10:21;100717.13;;;28.15;51.46
9750;BME280;4914;43.218;27.908;2022-07-22T07:12:48;100711.81;;;28.20;43.42
9750;BME280;4914;43.218;27.908;2022-07-22T07:15:14;100710.88;;;28.26;43.77
9750;BME280;4914;43.218;27.908;2022-07-22T07:17:41;100718.75;;;28.34;43.34
9750;BME280;4914;43.218;27.908;2022-07-22T07:20:09;100716.69;;;28.59;46.74
9750;BME280;4914;43.218;27.908;2022-07-22T07:22:37;100717.59;;;28.72;44.54
9750;BME280;4914;43.218;27.908;2022-07-22T07:25:05;100717.22;;;28.80;41.93
9750;BME280;4914;43.218;27.908;2022-07-22T07:27:32;100719.16;;;28.91;42.45
9750;BME280;4914;43.218;27.908;2022-07-22T07:29:59;100721.66;;;29.04;41.79
9750;BME280;4914;43.218;27.908;2022-07-22T07:32:26;100723.56;;;29.03;41.51
9750;BME280;4914;43.218;27.908;2022-07-22T07:34:53;100720.84;;;29.15;38.42
9750;BME280;4914;43.218;27.908;2022-07-22T07:37:20;100714.53;;;29.26;39.58
9750;BME280;4914;43.218;27.908;2022-07-22T07:39:48;100720.25;;;29.36;39.87
9750;BME280;4914;43.218;27.908;2022-07-22T07:42:15;100719.81;;;29.39;37.36
9750;BME280;4914;43.218;27.908;2022-07-22T07:44:41;100727.28;;;29.56;39.23
9750;BME280;4914;43.218;27.908;2022-07-22T07:47:08;100726.19;;;29.68;37.66
9750;BME280;4914;43.218;27.908;2022-07-22T07:49:35;100716.28;;;29.79;37.74
9750;BME280;4914;43.218;27.908;2022-07-22T07:52:02;100722.00;;;29.89;38.32
9750;BME280;4914;43.218;27.908;2022-07-22T07:54:29;100721.03;;;29.95;36.40
9750;BME280;4914;43.218;27.908;2022-07-22T07:56:57;100718.59;;;30.10;36.26
9750;BME280;4914;43.218;27.908;2022-07-22T07:59:24;100723.22;;;30.21;35.95
9750;BME280;4914;43.218;27.908;2022-07-22T08:01:51;100715.91;;;30.27;34.50
9750;BME280;4914;43.218;27.908;2022-07-22T08:04:18;100719.28;;;30.46;34.53
9750;BME280;4914;43.218;27.908;2022-07-22T08:06:45;100718.41;;;30.57;34.53
9750;BME280;4914;43.218;27.908;2022-07-22T08:09:11;100716.09;;;30.65;34.28
9750;BME280;4914;43.218;27.908;2022-07-22T08:11:38;100721.00;;;30.80;34.29
9750;BME280;4914;43.218;27.908;2022-07-22T08:14:06;100723.16;;;30.95;34.41
9750;BME280;4914;43.218;27.908;2022-07-22T08:16:33;100733.78;;;31.03;34.40
9750;BME280;4914;43.218;27.908;2022-07-22T08:19:00;100726.19;;;31.10;34.16
9750;BME280;4914;43.218;27.908;2022-07-22T08:21:27;100714.16;;;31.11;33.30
9750;BME280;4914;43.218;27.908;2022-07-22T08:23:54;100729.19;;;31.08;33.55
9750;BME280;4914;43.218;27.908;2022-07-22T08:26:21;100727.66;;;31.17;33.41
9750;BME280;4914;43.218;27.908;2022-07-22T08:28:48;100719.94;;;31.14;32.42
9750;BME280;4914;43.218;27.908;2022-07-22T08:31:16;100717.97;;;31.27;32.85
9750;BME280;4914;43.218;27.908;2022-07-22T08:33:43;100721.72;;;31.42;33.52
9750;BME280;4914;43.218;27.908;2022-07-22T08:36:10;100721.75;;;31.59;32.57
9750;BME280;4914;43.218;27.908;2022-07-22T08:38:37;100721.53;;;31.66;33.20
9750;BME280;4914;43.218;27.908;2022-07-22T08:41:05;100724.63;;;31.69;32.23
9750;BME280;4914;43.218;27.908;2022-07-22T08:43:35;100729.66;;;31.77;32.77
9750;BME280;4914;43.218;27.908;2022-07-22T08:46:02;100728.38;;;31.85;31.70
9750;BME280;4914;43.218;27.908;2022-07-22T08:48:31;100719.69;;;31.71;30.95
9750;BME280;4914;43.218;27.908;2022-07-22T08:50:58;100720.97;;;31.85;29.92
9750;BME280;4914;43.218;27.908;2022-07-22T08:53:25;100720.00;;;31.96;30.52
9750;BME280;4914;43.218;27.908;2022-07-22T08:55:52;100720.84;;;32.19;31.84
9750;BME280;4914;43.218;27.908;2022-07-22T08:58:19;100721.91;;;32.39;31.12
9750;BME280;4914;43.218;27.908;2022-07-22T09:00:46;100727.31;;;32.56;30.45
9750;BME280;4914;43.218;27.908;2022-07-22T09:03:18;100727.06;;;32.63;30.68
9750;BME280;4914;43.218;27.908;2022-07-22T09:05:50;100721.88;;;32.93;29.56
9750;BME280;4914;43.218;27.908;2022-07-22T09:08:17;100711.34;;;33.17;28.84
9750;BME280;4914;43.218;27.908;2022-07-22T09:10:44;100712.81;;;33.77;29.51
9750;BME280;4914;43.218;27.908;2022-07-22T09:13:11;100714.72;;;34.64;28.67
9750;BME280;4914;43.218;27.908;2022-07-22T09:15:46;100720.81;;;35.36;27.08
9750;BME280;4914;43.218;27.908;2022-07-22T09:18:13;100717.78;;;36.07;26.42
9750;BME280;4914;43.218;27.908;2022-07-22T09:20:40;100722.34;;;36.81;25.78
9750;BME280;4914;43.218;27.908;2022-07-22T09:23:13;100718.88;;;36.65;25.63
9750;BME280;4914;43.218;27.908;2022-07-22T09:25:41;100714.44;;;36.64;26.05
9750;BME280;4914;43.218;27.908;2022-07-22T09:28:16;100711.91;;;36.73;25.65
9750;BME280;4914;43.218;27.908;2022-07-22T09:30:48;100716.97;;;36.61;25.80
9750;BME280;4914;43.218;27.908;2022-07-22T09:33:16;100711.50;;;36.85;25.58
9750;BME280;4914;43.218;27.908;2022-07-22T09:35:44;100718.47;;;36.82;25.49
9750;BME280;4914;43.218;27.908;2022-07-22T09:38:13;100716.81;;;37.15;24.49
9750;BME280;4914;43.218;27.908;2022-07-22T09:40:42;100700.19;;;37.86;24.12
9750;BME280;4914;43.218;27.908;2022-07-22T09:43:10;100701.78;;;38.86;23.19
9750;BME280;4914;43.218;27.908;2022-07-22T09:45:45;100708.41;;;38.90;23.06
9750;BME280;4914;43.218;27.908;2022-07-22T09:48:13;100699.25;;;39.49;22.52
9750;BME280;4914;43.218;27.908;2022-07-22T09:50:40;100691.00;;;39.99;22.33
9750;BME280;4914;43.218;27.908;2022-07-22T09:53:07;100691.16;;;40.30;21.59
9750;BME280;4914;43.218;27.908;2022-07-22T09:55:38;100697.13;;;40.59;21.52
9750;BME280;4914;43.218;27.908;2022-07-22T09:58:05;100705.25;;;41.14;20.98
9750;BME280;4914;43.218;27.908;2022-07-22T10:00:33;100687.69;;;41.13;20.76
9750;BME280;4914;43.218;27.908;2022-07-22T10:03:03;100692.50;;;41.61;20.68
9750;BME280;4914;43.218;27.908;2022-07-22T10:05:33;100689.53;;;41.49;20.94
9750;BME280;4914;43.218;27.908;2022-07-22T10:08:01;100673.06;;;42.04;20.61
9750;BME280;4914;43.218;27.908;2022-07-22T10:10:30;100688.06;;;42.34;20.32
9750;BME280;4914;43.218;27.908;2022-07-22T10:13:00;100679.50;;;42.56;19.89
9750;BME280;4914;43.218;27.908;2022-07-22T10:15:28;100686.53;;;42.96;19.48
9750;BME280;4914;43.218;27.908;2022-07-22T10:17:58;100684.66;;;43.18;19.79
9750;BME280;4914;43.218;27.908;2022-07-22T10:20:27;100679.81;;;42.11;19.85
9750;BME280;4914;43.218;27.908;2022-07-22T10:22:55;100675.91;;;43.28;19.29
9750;BME280;4914;43.218;27.908;2022-07-22T10:25:23;100674.84;;;42.94;19.73
9750;BME280;4914;43.218;27.908;2022-07-22T10:27:54;100675.63;;;43.21;19.49
9750;BME280;4914;43.218;27.908;2022-07-22T10:30:24;100664.88;;;42.68;19.57
9750;BME280;4914;43.218;27.908;2022-07-22T10:33:06;100664.69;;;42.81;19.47
9750;BME280;4914;43.218;27.908;2022-07-22T10:35:35;100670.75;;;41.89;20.31
9750;BME280;4914;43.218;27.908;2022-07-22T10:38:07;100676.00;;;41.42;21.02
9750;BME280;4914;43.218;27.908;2022-07-22T10:40:49;100672.09;;;42.60;21.50
9750;BME280;4914;43.218;27.908;2022-07-22T10:43:16;100668.88;;;43.04;22.70
9750;BME280;4914;43.218;27.908;2022-07-22T10:45:48;100664.63;;;43.16;21.96
9750;BME280;4914;43.218;27.908;2022-07-22T10:48:18;100659.75;;;42.61;20.99
9750;BME280;4914;43.218;27.908;2022-07-22T10:50:50;100659.13;;;42.47;19.95
9750;BME280;4914;43.218;27.908;2022-07-22T10:53:23;100663.56;;;42.48;19.96
9750;BME280;4914;43.218;27.908;2022-07-22T10:55:59;100663.47;;;42.99;21.38
9750;BME280;4914;43.218;27.908;2022-07-22T10:58:52;100664.34;;;42.91;23.99
9750;BME280;4914;43.218;27.908;2022-07-22T11:01:23;100663.50;;;41.40;24.90
9750;BME280;4914;43.218;27.908;2022-07-22T11:03:50;100664.63;;;41.78;24.96
9750;BME280;4914;43.218;27.908;2022-07-22T11:06:24;100659.25;;;41.82;24.24
9750;BME280;4914;43.218;27.908;2022-07-22T11:08:52;100668.66;;;42.37;23.98
9750;BME280;4914;43.218;27.908;2022-07-22T11:11:34;100680.97;;;40.92;25.58
9750;BME280;4914;43.218;27.908;2022-07-22T11:14:03;100676.31;;;40.79;25.13
9750;BME280;4914;43.218;27.908;2022-07-22T11:16:31;100672.47;;;40.97;24.42
9750;BME280;4914;43.218;27.908;2022-07-22T11:19:00;100672.00;;;40.95;24.41
9750;BME280;4914;43.218;27.908;2022-07-22T11:21:30;100672.56;;;40.39;24.77
9750;BME280;4914;43.218;27.908;2022-07-22T11:23:58;100673.00;;;40.32;24.93
9750;BME280;4914;43.218;27.908;2022-07-22T11:26:39;100664.47;;;40.51;24.53
9750;BME280;4914;43.218;27.908;2022-07-22T11:29:06;100668.03;;;40.43;24.69
9750;BME280;4914;43.218;27.908;2022-07-22T11:31:35;100668.63;;;40.40;24.19
9750;BME280;4914;43.218;27.908;2022-07-22T11:34:10;100667.31;;;41.04;23.85
9750;BME280;4914;43.218;27.908;2022-07-22T11:36:39;100675.94;;;40.14;24.38
9750;BME280;4914;43.218;27.908;2022-07-22T11:39:07;100675.69;;;39.60;24.54
9750;BME280;4914;43.218;27.908;2022-07-22T11:41:35;100680.78;;;38.99;25.56
9750;BME280;4914;43.218;27.908;2022-07-22T11:44:02;100671.53;;;36.67;27.79
9750;BME280;4914;43.218;27.908;2022-07-22T11:46:36;100667.19;;;36.51;28.36
9750;BME280;4914;43.218;27.908;2022-07-22T11:49:04;100677.28;;;36.32;28.90
9750;BME280;4914;43.218;27.908;2022-07-22T11:51:32;100678.22;;;36.61;28.40
9750;BME280;4914;43.218;27.908;2022-07-22T11:54:00;100678.06;;;35.93;29.26
9750;BME280;4914;43.218;27.908;2022-07-22T11:56:27;100680.53;;;35.20;29.83
9750;BME280;4914;43.218;27.908;2022-07-22T11:58:55;100670.03;;;34.56;31.24
9750;BME280;4914;43.218;27.908;2022-07-22T12:01:24;100665.47;;;33.90;32.37
9750;BME280;4914;43.218;27.908;2022-07-22T12:03:55;100664.38;;;34.01;32.90
9750;BME280;4914;43.218;27.908;2022-07-22T12:06:24;100668.84;;;34.17;33.86
9750;BME280;4914;43.218;27.908;2022-07-22T12:08:53;100664.22;;;34.23;34.23
9750;BME280;4914;43.218;27.908;2022-07-22T12:11:24;100658.34;;;33.99;35.15
9750;BME280;4914;43.218;27.908;2022-07-22T12:13:52;100667.97;;;33.39;35.58
9750;BME280;4914;43.218;27.908;2022-07-22T12:16:21;100657.81;;;33.03;34.55
9750;BME280;4914;43.218;27.908;2022-07-22T12:18:57;100655.97;;;33.13;34.76
9750;BME280;4914;43.218;27.908;2022-07-22T12:21:26;100672.81;;;32.80;35.80
9750;BME280;4914;43.218;27.908;2022-07-22T12:23:55;100675.22;;;32.18;36.38
9750;BME280;4914;43.218;27.908;2022-07-22T12:26:42;100666.03;;;31.85;38.92
9750;BME280;4914;43.218;27.908;2022-07-22T12:29:14;100662.41;;;31.80;39.53
9750;BME280;4914;43.218;27.908;2022-07-22T12:31:42;100657.50;;;31.60;39.71
9750;BME280;4914;43.218;27.908;2022-07-22T12:34:11;100658.66;;;31.64;38.50
9750;BME280;4914;43.218;27.908;2022-07-22T12:36:38;100655.94;;;30.75;41.35
9750;BME280;4914;43.218;27.908;2022-07-22T12:39:12;100653.78;;;31.11;40.86
9750;BME280;4914;43.218;27.908;2022-07-22T12:41:48;100651.34;;;31.14;40.13
9750;BME280;4914;43.218;27.908;2022-07-22T12:44:19;100658.25;;;31.17;39.21
9750;BME280;4914;43.218;27.908;2022-07-22T12:46:48;100667.94;;;31.03;40.98
9750;BME280;4914;43.218;27.908;2022-07-22T12:49:18;100647.63;;;31.04;39.47
9750;BME280;4914;43.218;27.908;2022-07-22T12:52:04;100658.22;;;31.34;39.15
9750;BME280;4914;43.218;27.908;2022-07-22T12:54:31;100656.06;;;31.36;38.47
9750;BME280;4914;43.218;27.908;2022-07-22T12:56:58;100655.53;;;31.17;40.77
9750;BME280;4914;43.218;27.908;2022-07-22T12:59:25;100661.03;;;31.39;40.13